Allenton, Wisconsin
Current Conditions -  °F | °C
As of 1:30 PM on Wednesday 17 Dec 2014 (Local Time) from KETB Reporting Station
Overcast Overcast  
Wind Chill: 12°   Ceiling: 2100
Heat Index: 25°   Visibility: 10mi
Dew Point: 18°   Wind: 15mph
Humidity: 74%   Direction: 290°WNW
Pressure: 30.17"   Gusts: 20mph
Location:  43.42°N, 88.34°W
Report Text: KETB 171930Z AUTO 29013G17KT 10SM OVC021 M04/M08 A3017 RMK AO2
Loading
Personal Weather Stations






























Interactive Weather Map New forecast layout! Learn more

10-Day Weather Forecast

Advertisements
Track Severe Weather on mobile